sensor_id;sensor_type;location;lat;lon;timestamp;pressure;altitude;pressure_sealevel;temperature;humidity
11174;BME280;5643;50.856;12.088;2024-03-23T00:56:24;98820.97;;;5.04;100.00
11174;BME280;5643;50.856;12.088;2024-03-23T00:58:51;98805.03;;;5.10;100.00
11174;BME280;5643;50.856;12.088;2024-03-23T01:01:18;98799.25;;;5.19;100.00
11174;BME280;5643;50.856;12.088;2024-03-23T01:03:45;98795.88;;;5.31;100.00
11174;BME280;5643;50.856;12.088;2024-03-23T01:06:13;98794.09;;;5.19;100.00
11174;BME280;5643;50.856;12.088;2024-03-23T01:08:39;98791.41;;;5.21;100.00
11174;BME280;5643;50.856;12.088;2024-03-23T01:11:07;98780.66;;;5.39;100.00
11174;BME280;5643;50.856;12.088;2024-03-23T01:13:35;98778.94;;;5.52;100.00
11174;BME280;5643;50.856;12.088;2024-03-23T01:16:04;98787.13;;;5.59;100.00
11174;BME280;5643;50.856;12.088;2024-03-23T01:18:30;98776.75;;;5.72;100.00
11174;BME280;5643;50.856;12.088;2024-03-23T01:20:59;98782.38;;;5.91;100.00
11174;BME280;5643;50.856;12.088;2024-03-23T01:23:25;98775.44;;;5.91;100.00
11174;BME280;5643;50.856;12.088;2024-03-23T01:25:53;98767.44;;;6.07;100.00
11174;BME280;5643;50.856;12.088;2024-03-23T01:28:20;98767.84;;;6.14;100.00
11174;BME280;5643;50.856;12.088;2024-03-23T01:30:49;98763.59;;;6.25;100.00
11174;BME280;5643;50.856;12.088;2024-03-23T01:33:16;98768.88;;;6.24;100.00
11174;BME280;5643;50.856;12.088;2024-03-23T01:35:43;98764.59;;;6.35;100.00
11174;BME280;5643;50.856;12.088;2024-03-23T01:38:10;98751.91;;;6.43;100.00
11174;BME280;5643;50.856;12.088;2024-03-23T01:40:37;98754.06;;;6.50;100.00
11174;BME280;5643;50.856;12.088;2024-03-23T01:43:05;98756.00;;;6.59;100.00
11174;BME280;5643;50.856;12.088;2024-03-23T01:45:34;98757.44;;;6.63;100.00
11174;BME280;5643;50.856;12.088;2024-03-23T01:48:03;98760.97;;;6.62;100.00
11174;BME280;5643;50.856;12.088;2024-03-23T01:50:32;98766.34;;;6.71;100.00
11174;BME280;5643;50.856;12.088;2024-03-23T01:53:00;98756.56;;;6.75;100.00
11174;BME280;5643;50.856;12.088;2024-03-23T01:55:31;98741.50;;;6.80;100.00
11174;BME280;5643;50.856;12.088;2024-03-23T01:57:58;98724.25;;;6.79;100.00
11174;BME280;5643;50.856;12.088;2024-03-23T02:00:26;98721.59;;;6.68;100.00
11174;BME280;5643;50.856;12.088;2024-03-23T02:02:54;98725.66;;;7.53;100.00
11174;BME280;5643;50.856;12.088;2024-03-23T02:05:23;98729.66;;;7.46;100.00
11174;BME280;5643;50.856;12.088;2024-03-23T02:07:50;98738.81;;;7.16;100.00
11174;BME280;5643;50.856;12.088;2024-03-23T02:10:18;98727.00;;;7.23;100.00
11174;BME280;5643;50.856;12.088;2024-03-23T02:12:45;98728.94;;;7.33;100.00
11174;BME280;5643;50.856;12.088;2024-03-23T02:15:13;98734.38;;;7.41;100.00
11174;BME280;5643;50.856;12.088;2024-03-23T02:17:40;98732.38;;;7.44;100.00
11174;BME280;5643;50.856;12.088;2024-03-23T02:20:08;98734.97;;;7.44;100.00
11174;BME280;5643;50.856;12.088;2024-03-23T02:22:38;98724.97;;;7.62;100.00
11174;BME280;5643;50.856;12.088;2024-03-23T02:25:07;98721.16;;;7.55;100.00
11174;BME280;5643;50.856;12.088;2024-03-23T02:27:34;98723.31;;;7.61;100.00
11174;BME280;5643;50.856;12.088;2024-03-23T02:30:02;98718.84;;;7.63;100.00
11174;BME280;5643;50.856;12.088;2024-03-23T02:32:29;98703.59;;;7.58;100.00
11174;BME280;5643;50.856;12.088;2024-03-23T02:34:57;98691.66;;;7.67;100.00
11174;BME280;5643;50.856;12.088;2024-03-23T02:37:23;98685.16;;;7.72;100.00
11174;BME280;5643;50.856;12.088;2024-03-23T02:39:51;98695.44;;;7.63;100.00
11174;BME280;5643;50.856;12.088;2024-03-23T02:42:19;98695.78;;;7.69;100.00
11174;BME280;5643;50.856;12.088;2024-03-23T02:44:47;98684.34;;;7.83;100.00
11174;BME280;5643;50.856;12.088;2024-03-23T02:47:13;98677.38;;;7.84;100.00
11174;BME280;5643;50.856;12.088;2024-03-23T02:49:41;98693.78;;;7.84;100.00
11174;BME280;5643;50.856;12.088;2024-03-23T02:52:08;98694.13;;;7.91;100.00
11174;BME280;5643;50.856;12.088;2024-03-23T02:54:35;98683.72;;;7.91;100.00
11174;BME280;5643;50.856;12.088;2024-03-23T02:57:02;98691.66;;;7.89;100.00
11174;BME280;5643;50.856;12.088;2024-03-23T02:59:32;98687.63;;;7.96;100.00
11174;BME280;5643;50.856;12.088;2024-03-23T03:01:58;98673.44;;;8.00;100.00
11174;BME280;5643;50.856;12.088;2024-03-23T03:04:27;98666.59;;;7.99;100.00
11174;BME280;5643;50.856;12.088;2024-03-23T03:06:53;98653.47;;;8.01;100.00
11174;BME280;5643;50.856;12.088;2024-03-23T03:09:21;98651.69;;;8.01;100.00
11174;BME280;5643;50.856;12.088;2024-03-23T03:11:48;98642.00;;;8.03;100.00
11174;BME280;5643;50.856;12.088;2024-03-23T03:14:15;98646.94;;;8.06;100.00
11174;BME280;5643;50.856;12.088;2024-03-23T03:16:43;98643.75;;;8.14;100.00
11174;BME280;5643;50.856;12.088;2024-03-23T03:19:12;98637.16;;;8.10;100.00
11174;BME280;5643;50.856;12.088;2024-03-23T03:21:38;98642.34;;;8.10;100.00
11174;BME280;5643;50.856;12.088;2024-03-23T03:24:06;98625.44;;;8.16;100.00
11174;BME280;5643;50.856;12.088;2024-03-23T03:26:33;98623.78;;;8.14;100.00
11174;BME280;5643;50.856;12.088;2024-03-23T03:29:01;98618.34;;;8.06;100.00
11174;BME280;5643;50.856;12.088;2024-03-23T03:31:28;98609.84;;;8.16;100.00
11174;BME280;5643;50.856;12.088;2024-03-23T03:33:57;98606.06;;;8.08;100.00
11174;BME280;5643;50.856;12.088;2024-03-23T03:36:24;98599.66;;;8.12;100.00
11174;BME280;5643;50.856;12.088;2024-03-23T03:38:51;98570.00;;;8.15;100.00
11174;BME280;5643;50.856;12.088;2024-03-23T03:41:18;98577.06;;;8.13;100.00
11174;BME280;5643;50.856;12.088;2024-03-23T03:43:46;98581.00;;;8.07;100.00
11174;BME280;5643;50.856;12.088;2024-03-23T03:46:13;98575.06;;;8.05;100.00
11174;BME280;5643;50.856;12.088;2024-03-23T03:48:40;98568.81;;;8.08;100.00
11174;BME280;5643;50.856;12.088;2024-03-23T03:51:08;98570.94;;;8.14;100.00
11174;BME280;5643;50.856;12.088;2024-03-23T03:53:36;98569.66;;;8.08;100.00
11174;BME280;5643;50.856;12.088;2024-03-23T03:56:03;98568.94;;;8.06;100.00
11174;BME280;5643;50.856;12.088;2024-03-23T03:58:30;98568.56;;;8.11;100.00
11174;BME280;5643;50.856;12.088;2024-03-23T04:00:57;98572.25;;;8.08;100.00
11174;BME280;5643;50.856;12.088;2024-03-23T04:03:24;98563.81;;;8.16;100.00
11174;BME280;5643;50.856;12.088;2024-03-23T04:05:51;98556.72;;;8.18;100.00
11174;BME280;5643;50.856;12.088;2024-03-23T04:08:21;98546.06;;;8.21;100.00
11174;BME280;5643;50.856;12.088;2024-03-23T04:10:48;98542.50;;;8.22;100.00
11174;BME280;5643;50.856;12.088;2024-03-23T04:13:16;98531.41;;;8.20;100.00
11174;BME280;5643;50.856;12.088;2024-03-23T04:15:42;98516.50;;;8.22;100.00
11174;BME280;5643;50.856;12.088;2024-03-23T04:18:10;98504.31;;;8.23;100.00
11174;BME280;5643;50.856;12.088;2024-03-23T04:20:37;98508.25;;;8.17;100.00
11174;BME280;5643;50.856;12.088;2024-03-23T04:23:05;98509.00;;;8.08;100.00
11174;BME280;5643;50.856;12.088;2024-03-23T04:25:33;98501.38;;;8.16;100.00
11174;BME280;5643;50.856;12.088;2024-03-23T04:28:01;98495.56;;;8.24;100.00
11174;BME280;5643;50.856;12.088;2024-03-23T04:30:29;98498.19;;;8.24;100.00
11174;BME280;5643;50.856;12.088;2024-03-23T04:32:58;98500.81;;;8.12;100.00
11174;BME280;5643;50.856;12.088;2024-03-23T04:35:24;98505.47;;;8.09;100.00
11174;BME280;5643;50.856;12.088;2024-03-23T04:37:53;98512.31;;;8.10;100.00
11174;BME280;5643;50.856;12.088;2024-03-23T04:40:21;98500.44;;;8.17;100.00
11174;BME280;5643;50.856;12.088;2024-03-23T04:42:50;98504.13;;;8.14;100.00
11174;BME280;5643;50.856;12.088;2024-03-23T04:45:18;98503.53;;;8.11;100.00
11174;BME280;5643;50.856;12.088;2024-03-23T04:47:46;98484.84;;;8.17;100.00
11174;BME280;5643;50.856;12.088;2024-03-23T04:50:14;98468.34;;;8.28;100.00
11174;BME280;5643;50.856;12.088;2024-03-23T04:52:41;98472.16;;;8.24;100.00
11174;BME280;5643;50.856;12.088;2024-03-23T04:55:09;98476.28;;;8.26;100.00
11174;BME280;5643;50.856;12.088;2024-03-23T04:57:38;98469.44;;;8.25;100.00
11174;BME280;5643;50.856;12.088;2024-03-23T05:00:07;98452.75;;;8.28;100.00
11174;BME280;5643;50.856;12.088;2024-03-23T05:02:44;98440.22;;;8.33;100.00
11174;BME280;5643;50.856;12.088;2024-03-23T05:05:11;98440.69;;;8.27;100.00
11174;BME280;5643;50.856;12.088;2024-03-23T05:07:39;98426.84;;;8.26;100.00
11174;BME280;5643;50.856;12.088;2024-03-23T05:10:09;98424.19;;;8.17;100.00
11174;BME280;5643;50.856;12.088;2024-03-23T05:12:37;98430.22;;;8.17;100.00
11174;BME280;5643;50.856;12.088;2024-03-23T05:15:06;98413.16;;;8.24;100.00
11174;BME280;5643;50.856;12.088;2024-03-23T05:17:34;98400.84;;;8.26;100.00
11174;BME280;5643;50.856;12.088;2024-03-23T05:20:00;98396.16;;;8.20;100.00
11174;BME280;5643;50.856;12.088;2024-03-23T05:22:28;98406.31;;;8.23;100.00
11174;BME280;5643;50.856;12.088;2024-03-23T05:24:55;98400.84;;;8.26;100.00
11174;BME280;5643;50.856;12.088;2024-03-23T05:27:23;98384.94;;;8.20;100.00
11174;BME280;5643;50.856;12.088;2024-03-23T05:29:49;98384.34;;;8.16;100.00
11174;BME280;5643;50.856;12.088;2024-03-23T05:32:18;98364.25;;;8.18;100.00
11174;BME280;5643;50.856;12.088;2024-03-23T05:34:45;98379.81;;;8.08;100.00
11174;BME280;5643;50.856;12.088;2024-03-23T05:37:12;98376.06;;;8.01;100.00
11174;BME280;5643;50.856;12.088;2024-03-23T05:39:39;98372.94;;;8.07;100.00
11174;BME280;5643;50.856;12.088;2024-03-23T05:42:06;98359.88;;;8.19;100.00
11174;BME280;5643;50.856;12.088;2024-03-23T05:44:34;98367.69;;;8.19;100.00
11174;BME280;5643;50.856;12.088;2024-03-23T05:47:01;98363.97;;;8.21;100.00
11174;BME280;5643;50.856;12.088;2024-03-23T05:49:29;98365.63;;;8.22;100.00
11174;BME280;5643;50.856;12.088;2024-03-23T05:51:57;98370.41;;;8.17;100.00
11174;BME280;5643;50.856;12.088;2024-03-23T05:54:23;98364.09;;;8.10;100.00
11174;BME280;5643;50.856;12.088;2024-03-23T05:56:54;98364.88;;;8.10;100.00
11174;BME280;5643;50.856;12.088;2024-03-23T05:59:21;98347.38;;;8.12;100.00
11174;BME280;5643;50.856;12.088;2024-03-23T06:01:48;98348.09;;;8.14;100.00
11174;BME280;5643;50.856;12.088;2024-03-23T06:04:15;98347.78;;;8.08;100.00
11174;BME280;5643;50.856;12.088;2024-03-23T06:06:45;98343.44;;;8.18;100.00
11174;BME280;5643;50.856;12.088;2024-03-23T06:09:12;98331.69;;;8.24;100.00
11174;BME280;5643;50.856;12.088;2024-03-23T06:11:40;98320.06;;;8.28;100.00
11174;BME280;5643;50.856;12.088;2024-03-23T06:14:06;98313.88;;;8.40;100.00
11174;BME280;5643;50.856;12.088;2024-03-23T06:16:34;98293.19;;;8.48;100.00
11174;BME280;5643;50.856;12.088;2024-03-23T06:19:01;98280.50;;;8.54;100.00
11174;BME280;5643;50.856;12.088;2024-03-23T06:21:30;98286.06;;;8.40;100.00
11174;BME280;5643;50.856;12.088;2024-03-23T06:23:58;98292.38;;;8.47;100.00
11174;BME280;5643;50.856;12.088;2024-03-23T06:26:26;98281.47;;;8.63;100.00
11174;BME280;5643;50.856;12.088;2024-03-23T06:28:53;98268.03;;;8.68;100.00
11174;BME280;5643;50.856;12.088;2024-03-23T06:31:20;98253.66;;;8.54;100.00
11174;BME280;5643;50.856;12.088;2024-03-23T06:33:47;98264.47;;;8.59;100.00
11174;BME280;5643;50.856;12.088;2024-03-23T06:36:14;98262.06;;;8.77;100.00
11174;BME280;5643;50.856;12.088;2024-03-23T06:38:41;98262.31;;;8.74;100.00
11174;BME280;5643;50.856;12.088;2024-03-23T06:41:10;98259.59;;;8.85;100.00
11174;BME280;5643;50.856;12.088;2024-03-23T06:43:37;98256.16;;;8.75;100.00
11174;BME280;5643;50.856;12.088;2024-03-23T06:46:05;98251.53;;;8.97;100.00
11174;BME280;5643;50.856;12.088;2024-03-23T06:48:32;98239.03;;;9.11;100.00
11174;BME280;5643;50.856;12.088;2024-03-23T06:51:00;98233.53;;;9.14;100.00
11174;BME280;5643;50.856;12.088;2024-03-23T06:53:26;98228.88;;;9.27;100.00
11174;BME280;5643;50.856;12.088;2024-03-23T06:55:54;98210.34;;;9.30;100.00
11174;BME280;5643;50.856;12.088;2024-03-23T06:58:24;98201.44;;;9.42;100.00
11174;BME280;5643;50.856;12.088;2024-03-23T07:00:52;98207.72;;;9.39;100.00
11174;BME280;5643;50.856;12.088;2024-03-23T07:03:20;98198.44;;;9.37;100.00
11174;BME280;5643;50.856;12.088;2024-03-23T07:05:49;98190.91;;;9.71;100.00
11174;BME280;5643;50.856;12.088;2024-03-23T07:08:15;98200.28;;;9.54;100.00
11174;BME280;5643;50.856;12.088;2024-03-23T07:10:47;98213.34;;;9.45;100.00
11174;BME280;5643;50.856;12.088;2024-03-23T07:13:14;98200.38;;;9.72;100.00
11174;BME280;5643;50.856;12.088;2024-03-23T07:15:51;98206.56;;;10.08;100.00
11174;BME280;5643;50.856;12.088;2024-03-23T07:18:18;98211.78;;;10.08;100.00
11174;BME280;5643;50.856;12.088;2024-03-23T07:20:52;98202.78;;;9.93;100.00
11174;BME280;5643;50.856;12.088;2024-03-23T07:23:19;98212.03;;;9.77;100.00
11174;BME280;5643;50.856;12.088;2024-03-23T07:25:56;98209.50;;;9.58;100.00
11174;BME280;5643;50.856;12.088;2024-03-23T07:28:23;98214.00;;;9.56;100.00
11174;BME280;5643;50.856;12.088;2024-03-23T07:31:03;98212.66;;;9.52;100.00
11174;BME280;5643;50.856;12.088;2024-03-23T07:33:30;98191.69;;;9.54;100.00
11174;BME280;5643;50.856;12.088;2024-03-23T07:35:58;98186.03;;;9.58;100.00
11174;BME280;5643;50.856;12.088;2024-03-23T07:38:27;98169.13;;;9.62;100.00
11174;BME280;5643;50.856;12.088;2024-03-23T07:41:03;98165.75;;;9.52;100.00
11174;BME280;5643;50.856;12.088;2024-03-23T07:43:31;98169.19;;;9.53;100.00
11174;BME280;5643;50.856;12.088;2024-03-23T07:45:57;98190.69;;;9.55;100.00
11174;BME280;5643;50.856;12.088;2024-03-23T07:48:27;98200.34;;;9.25;100.00
11174;BME280;5643;50.856;12.088;2024-03-23T07:51:01;98210.78;;;9.16;100.00
11174;BME280;5643;50.856;12.088;2024-03-23T07:53:30;98214.22;;;9.07;100.00
11174;BME280;5643;50.856;12.088;2024-03-23T07:55:58;98224.25;;;9.02;100.00
11174;BME280;5643;50.856;12.088;2024-03-23T07:58:26;98247.38;;;8.76;100.00
11174;BME280;5643;50.856;12.088;2024-03-23T08:00:54;98257.50;;;8.69;100.00
11174;BME280;5643;50.856;12.088;2024-03-23T08:03:21;98256.56;;;8.70;100.00
11174;BME280;5643;50.856;12.088;2024-03-23T08:05:50;98285.84;;;8.72;100.00
11174;BME280;5643;50.856;12.088;2024-03-23T08:08:17;98318.56;;;8.46;100.00
11174;BME280;5643;50.856;12.088;2024-03-23T08:10:48;98304.88;;;7.72;100.00
11174;BME280;5643;50.856;12.088;2024-03-23T08:13:15;98346.22;;;7.22;100.00
11174;BME280;5643;50.856;12.088;2024-03-23T08:15:43;98350.06;;;6.85;100.00
11174;BME280;5643;50.856;12.088;2024-03-23T08:18:10;98358.38;;;6.46;100.00
11174;BME280;5643;50.856;12.088;2024-03-23T08:20:38;98387.09;;;6.31;100.00
11174;BME280;5643;50.856;12.088;2024-03-23T08:23:06;98407.25;;;6.17;100.00
11174;BME280;5643;50.856;12.088;2024-03-23T08:25:34;98429.06;;;5.79;100.00
11174;BME280;5643;50.856;12.088;2024-03-23T08:28:01;98469.41;;;5.47;100.00
11174;BME280;5643;50.856;12.088;2024-03-23T08:30:29;98460.97;;;5.56;100.00
11174;BME280;5643;50.856;12.088;2024-03-23T08:32:59;98459.19;;;5.33;100.00
11174;BME280;5643;50.856;12.088;2024-03-23T08:35:27;98465.56;;;5.40;100.00
11174;BME280;5643;50.856;12.088;2024-03-23T08:37:54;98467.13;;;5.42;100.00
11174;BME280;5643;50.856;12.088;2024-03-23T08:40:24;98470.91;;;5.49;100.00
11174;BME280;5643;50.856;12.088;2024-03-23T08:42:50;98461.72;;;5.45;100.00
11174;BME280;5643;50.856;12.088;2024-03-23T08:45:18;98479.09;;;5.32;100.00
11174;BME280;5643;50.856;12.088;2024-03-23T08:47:44;98492.31;;;5.40;100.00
11174;BME280;5643;50.856;12.088;2024-03-23T08:50:12;98493.91;;;5.54;100.00
11174;BME280;5643;50.856;12.088;2024-03-23T08:52:39;98507.66;;;5.31;100.00
11174;BME280;5643;50.856;12.088;2024-03-23T08:55:07;98497.81;;;5.36;100.00
11174;BME280;5643;50.856;12.088;2024-03-23T08:57:37;98534.47;;;5.42;100.00
11174;BME280;5643;50.856;12.088;2024-03-23T09:00:06;98538.81;;;5.42;100.00
11174;BME280;5643;50.856;12.088;2024-03-23T09:02:35;98552.47;;;5.44;100.00
11174;BME280;5643;50.856;12.088;2024-03-23T09:05:03;98575.47;;;5.36;100.00
11174;BME280;5643;50.856;12.088;2024-03-23T09:07:31;98593.38;;;5.51;100.00
11174;BME280;5643;50.856;12.088;2024-03-23T09:09:58;98619.09;;;5.29;100.00
11174;BME280;5643;50.856;12.088;2024-03-23T09:12:25;98620.44;;;5.35;100.00
11174;BME280;5643;50.856;12.088;2024-03-23T09:14:54;98631.63;;;5.23;100.00
11174;BME280;5643;50.856;12.088;2024-03-23T09:17:21;98638.34;;;5.25;100.00
11174;BME280;5643;50.856;12.088;2024-03-23T09:19:48;98643.94;;;5.32;100.00
11174;BME280;5643;50.856;12.088;2024-03-23T09:22:15;98651.50;;;5.22;100.00
11174;BME280;5643;50.856;12.088;2024-03-23T09:24:42;98656.97;;;5.55;100.00
11174;BME280;5643;50.856;12.088;2024-03-23T09:27:09;98651.41;;;5.36;100.00
11174;BME280;5643;50.856;12.088;2024-03-23T09:29:37;98660.22;;;5.21;100.00
11174;BME280;5643;50.856;12.088;2024-03-23T09:32:06;98672.75;;;5.52;100.00
11174;BME280;5643;50.856;12.088;2024-03-23T09:34:34;98674.16;;;5.44;100.00
11174;BME280;5643;50.856;12.088;2024-03-23T09:37:01;98673.84;;;5.61;100.00
11174;BME280;5643;50.856;12.088;2024-03-23T09:39:28;98688.66;;;5.84;100.00
11174;BME280;5643;50.856;12.088;2024-03-23T09:41:57;98695.00;;;5.68;100.00
11174;BME280;5643;50.856;12.088;2024-03-23T09:44:25;98708.16;;;5.90;100.00
11174;BME280;5643;50.856;12.088;2024-03-23T09:46:52;98714.69;;;5.32;100.00
11174;BME280;5643;50.856;12.088;2024-03-23T09:49:22;98710.00;;;5.75;100.00
11174;BME280;5643;50.856;12.088;2024-03-23T09:51:48;98721.84;;;5.67;100.00
11174;BME280;5643;50.856;12.088;2024-03-23T09:54:17;98732.31;;;5.52;100.00
11174;BME280;5643;50.856;12.088;2024-03-23T09:56:43;98737.19;;;5.57;100.00
11174;BME280;5643;50.856;12.088;2024-03-23T09:59:11;98749.91;;;5.47;100.00
11174;BME280;5643;50.856;12.088;2024-03-23T10:01:38;98762.13;;;5.71;100.00
11174;BME280;5643;50.856;12.088;2024-03-23T10:04:08;98770.03;;;5.56;100.00
11174;BME280;5643;50.856;12.088;2024-03-23T10:06:39;98766.69;;;5.42;100.00
11174;BME280;5643;50.856;12.088;2024-03-23T10:09:16;98770.75;;;5.58;100.00
11174;BME280;5643;50.856;12.088;2024-03-23T10:11:43;98778.69;;;5.30;100.00
11174;BME280;5643;50.856;12.088;2024-03-23T10:14:29;98778.81;;;5.41;100.00
11174;BME280;5643;50.856;12.088;2024-03-23T10:17:11;98798.00;;;5.77;100.00
11174;BME280;5643;50.856;12.088;2024-03-23T10:19:41;98796.06;;;5.93;100.00
11174;BME280;5643;50.856;12.088;2024-03-23T10:22:13;98803.81;;;6.06;100.00
11174;BME280;5643;50.856;12.088;2024-03-23T10:24:41;98801.69;;;6.49;100.00
11174;BME280;5643;50.856;12.088;2024-03-23T10:27:08;98815.16;;;5.92;100.00
11174;BME280;5643;50.856;12.088;2024-03-23T10:29:37;98806.28;;;6.32;100.00
11174;BME280;5643;50.856;12.088;2024-03-23T10:32:10;98799.25;;;6.71;100.00
11174;BME280;5643;50.856;12.088;2024-03-23T10:34:39;98809.69;;;6.46;100.00
11174;BME280;5643;50.856;12.088;2024-03-23T10:37:06;98804.06;;;6.52;100.00
11174;BME280;5643;50.856;12.088;2024-03-23T10:39:36;98801.94;;;6.93;100.00
11174;BME280;5643;50.856;12.088;2024-03-23T10:42:04;98800.31;;;6.92;100.00
11174;BME280;5643;50.856;12.088;2024-03-23T10:44:33;98812.75;;;6.63;100.00
11174;BME280;5643;50.856;12.088;2024-03-23T10:47:00;98823.81;;;6.78;100.00
11174;BME280;5643;50.856;12.088;2024-03-23T10:49:29;98820.88;;;6.59;100.00
11174;BME280;5643;50.856;12.088;2024-03-23T10:51:57;98825.53;;;6.90;100.00
11174;BME280;5643;50.856;12.088;2024-03-23T10:54:25;98823.22;;;6.13;100.00
11174;BME280;5643;50.856;12.088;2024-03-23T10:56:59;98832.72;;;5.62;100.00
11174;BME280;5643;50.856;12.088;2024-03-23T10:59:28;98844.59;;;6.29;100.00
11174;BME280;5643;50.856;12.088;2024-03-23T11:01:56;98852.88;;;6.21;100.00
11174;BME280;5643;50.856;12.088;2024-03-23T11:04:30;98842.09;;;6.40;100.00
11174;BME280;5643;50.856;12.088;2024-03-23T11:06:57;98844.75;;;6.88;100.00
11174;BME280;5643;50.856;12.088;2024-03-23T11:09:41;98834.25;;;6.65;100.00
11174;BME280;5643;50.856;12.088;2024-03-23T11:12:27;98825.28;;;7.06;100.00
11174;BME280;5643;50.856;12.088;2024-03-23T11:14:58;98825.84;;;7.22;100.00
11174;BME280;5643;50.856;12.088;2024-03-23T11:17:27;98819.28;;;6.93;100.00
11174;BME280;5643;50.856;12.088;2024-03-23T11:19:57;98818.91;;;7.10;100.00
11174;BME280;5643;50.856;12.088;2024-03-23T11:22:43;98805.56;;;8.84;100.00
11174;BME280;5643;50.856;12.088;2024-03-23T11:25:16;98820.09;;;7.76;100.00
11174;BME280;5643;50.856;12.088;2024-03-23T11:27:45;98817.34;;;8.57;100.00
11174;BME280;5643;50.856;12.088;2024-03-23T11:30:16;98801.84;;;10.43;100.00
11174;BME280;5643;50.856;12.088;2024-03-23T11:32:45;98809.34;;;10.27;100.00
11174;BME280;5643;50.856;12.088;2024-03-23T11:35:31;98817.06;;;9.66;100.00
11174;BME280;5643;50.856;12.088;2024-03-23T11:38:03;98814.19;;;9.28;100.00
11174;BME280;5643;50.856;12.088;2024-03-23T11:40:32;98810.56;;;10.02;100.00
11174;BME280;5643;50.856;12.088;2024-03-23T11:43:01;98817.75;;;9.27;100.00
11174;BME280;5643;50.856;12.088;2024-03-23T11:45:31;98818.09;;;8.90;100.00
11174;BME280;5643;50.856;12.088;2024-03-23T11:48:05;98810.94;;;9.35;100.00
11174;BME280;5643;50.856;12.088;2024-03-23T11:50:37;98807.16;;;9.08;100.00
11174;BME280;5643;50.856;12.088;2024-03-23T11:53:14;98802.94;;;11.19;100.00
11174;BME280;5643;50.856;12.088;2024-03-23T11:55:47;98800.75;;;11.53;100.00
11174;BME280;5643;50.856;12.088;2024-03-23T11:58:16;98784.13;;;11.25;100.00
11174;BME280;5643;50.856;12.088;2024-03-23T12:00:50;98773.97;;;12.34;100.00
11174;BME280;5643;50.856;12.088;2024-03-23T12:03:18;98783.28;;;11.53;100.00
11174;BME280;5643;50.856;12.088;2024-03-23T12:05:48;98781.38;;;12.12;100.00
11174;BME280;5643;50.856;12.088;2024-03-23T12:08:22;98761.47;;;12.73;100.00
11174;BME280;5643;50.856;12.088;2024-03-23T12:10:52;98768.47;;;11.91;100.00
11174;BME280;5643;50.856;12.088;2024-03-23T12:13:21;98771.47;;;9.40;100.00
11174;BME280;5643;50.856;12.088;2024-03-23T12:15:50;98774.16;;;8.97;100.00
11174;BME280;5643;50.856;12.088;2024-03-23T12:18:17;98782.81;;;9.18;100.00
11174;BME280;5643;50.856;12.088;2024-03-23T12:20:50;98775.72;;;9.82;100.00
11174;BME280;5643;50.856;12.088;2024-03-23T12:23:17;98775.91;;;9.70;100.00
11174;BME280;5643;50.856;12.088;2024-03-23T12:25:44;98776.00;;;8.74;100.00
11174;BME280;5643;50.856;12.088;2024-03-23T12:28:11;98780.19;;;9.50;100.00
11174;BME280;5643;50.856;12.088;2024-03-23T12:30:42;98774.47;;;9.77;100.00
11174;BME280;5643;50.856;12.088;2024-03-23T12:33:09;98776.34;;;9.96;100.00
11174;BME280;5643;50.856;12.088;2024-03-23T12:35:37;98773.31;;;9.28;100.00
11174;BME280;5643;50.856;12.088;2024-03-23T12:38:04;98780.91;;;9.52;100.00
11174;BME280;5643;50.856;12.088;2024-03-23T12:40:32;98771.25;;;9.11;100.00
11174;BME280;5643;50.856;12.088;2024-03-23T12:42:58;98771.97;;;9.55;100.00
11174;BME280;5643;50.856;12.088;2024-03-23T12:45:26;98767.53;;;9.25;100.00
11174;BME280;5643;50.856;12.088;2024-03-23T12:47:57;98767.66;;;9.65;100.00
11174;BME280;5643;50.856;12.088;2024-03-23T12:50:28;98777.47;;;9.52;100.00
11174;BME280;5643;50.856;12.088;2024-03-23T12:52:54;98769.00;;;9.38;100.00
11174;BME280;5643;50.856;12.088;2024-03-23T12:55:22;98779.50;;;9.48;100.00
11174;BME280;5643;50.856;12.088;2024-03-23T12:57:48;98781.00;;;8.98;100.00
11174;BME280;5643;50.856;12.088;2024-03-23T13:00:16;98780.69;;;9.85;100.00
11174;BME280;5643;50.856;12.088;2024-03-23T13:02:44;98782.59;;;9.83;100.00
11174;BME280;5643;50.856;12.088;2024-03-23T13:05:13;98781.31;;;9.99;100.00
11174;BME280;5643;50.856;12.088;2024-03-23T13:07:40;98769.44;;;10.15;100.00
11174;BME280;5643;50.856;12.088;2024-03-23T13:10:08;98766.47;;;10.20;100.00
11174;BME280;5643;50.856;12.088;2024-03-23T13:12:35;98756.72;;;10.72;100.00
11174;BME280;5643;50.856;12.088;2024-03-23T13:15:08;98755.59;;;10.64;100.00
11174;BME280;5643;50.856;12.088;2024-03-23T13:17:35;98752.56;;;10.59;100.00
11174;BME280;5643;50.856;12.088;2024-03-23T13:20:03;98757.13;;;12.10;100.00
11174;BME280;5643;50.856;12.088;2024-03-23T13:22:31;98745.22;;;12.25;100.00
11174;BME280;5643;50.856;12.088;2024-03-23T13:24:59;98738.84;;;12.82;100.00
11174;BME280;5643;50.856;12.088;2024-03-23T13:27:27;98733.88;;;12.61;100.00
11174;BME280;5643;50.856;12.088;2024-03-23T13:29:55;98728.75;;;12.60;100.00
11174;BME280;5643;50.856;12.088;2024-03-23T13:32:21;98728.28;;;13.27;100.00
11174;BME280;5643;50.856;12.088;2024-03-23T13:34:49;98721.69;;;13.23;100.00
11174;BME280;5643;50.856;12.088;2024-03-23T13:37:16;98729.03;;;13.63;100.00
11174;BME280;5643;50.856;12.088;2024-03-23T13:39:45;98735.28;;;10.87;100.00
11174;BME280;5643;50.856;12.088;2024-03-23T13:42:12;98736.34;;;11.42;100.00
11174;BME280;5643;50.856;12.088;2024-03-23T13:44:42;98734.78;;;12.43;100.00
11174;BME280;5643;50.856;12.088;2024-03-23T13:47:09;98733.75;;;13.85;100.00
11174;BME280;5643;50.856;12.088;2024-03-23T13:49:36;98729.91;;;14.05;100.00
11174;BME280;5643;50.856;12.088;2024-03-23T13:52:04;98730.91;;;14.04;100.00
11174;BME280;5643;50.856;12.088;2024-03-23T13:54:33;98751.69;;;12.75;100.00
11174;BME280;5643;50.856;12.088;2024-03-23T13:57:01;98752.72;;;11.44;100.00
11174;BME280;5643;50.856;12.088;2024-03-23T13:59:29;98741.63;;;12.53;100.00
11174;BME280;5643;50.856;12.088;2024-03-23T14:01:56;98740.19;;;12.41;100.00